createdAt,value
2019-04-22T00:01:13.684Z,8.72
2019-04-22T00:03:49.761Z,8.68
2019-04-22T00:06:30.816Z,8.67
2019-04-22T00:09:05.511Z,8.55
2019-04-22T00:11:38.383Z,8.46
2019-04-22T00:14:06.752Z,8.49
2019-04-22T00:16:48.781Z,8.53
2019-04-22T00:21:47.671Z,8.48
2019-04-22T00:24:10.658Z,8.43
2019-04-22T00:26:50.215Z,8.40
2019-04-22T00:29:40.769Z,8.35
2019-04-22T00:32:00.021Z,8.44
2019-04-22T00:34:29.396Z,8.42
2019-04-22T00:37:00.666Z,8.43
2019-04-22T00:39:52.055Z,8.42
2019-04-22T00:42:09.976Z,8.38
2019-04-22T00:44:41.677Z,8.43
2019-04-22T00:47:17.969Z,8.39
2019-04-22T00:52:28.065Z,8.42
2019-04-22T00:54:49.541Z,8.36
2019-04-22T00:57:15.362Z,8.32
2019-04-22T00:59:45.661Z,8.32
2019-04-22T01:02:22.994Z,8.40
2019-04-22T01:05:09.769Z,8.35
2019-04-22T01:07:17.595Z,8.27
2019-04-22T01:12:26.333Z,8.14
2019-04-22T01:14:55.594Z,8.08
2019-04-22T01:17:27.728Z,8.05
2019-04-22T01:20:13.079Z,7.99
2019-04-22T01:22:27.128Z,7.90
2019-04-22T01:24:56.139Z,7.88
2019-04-22T01:27:22.198Z,7.80
2019-04-22T01:29:51.748Z,7.78
2019-04-22T01:32:17.607Z,7.88
2019-04-22T01:35:00.644Z,7.92
2019-04-22T01:37:28.798Z,7.88
2019-04-22T01:40:09.771Z,7.83
2019-04-22T01:42:39.750Z,7.86
2019-04-22T01:45:13.995Z,7.85
2019-04-22T01:47:46.682Z,7.82
2019-04-22T01:50:15.833Z,7.86
2019-04-22T01:52:46.773Z,7.79
2019-04-22T01:57:47.723Z,7.79
2019-04-22T02:00:11.463Z,7.81
2019-04-22T02:02:48.788Z,7.88
2019-04-22T02:07:54.298Z,7.88
2019-04-22T02:10:32.332Z,7.88
2019-04-22T02:12:55.003Z,7.95
2019-04-22T02:15:28.677Z,7.88
2019-04-22T02:18:03.232Z,7.66
2019-04-22T02:20:32.939Z,7.49
2019-04-22T02:46:41.283Z,7.20
2019-04-22T02:51:26.253Z,7.19
2019-04-22T02:54:22.243Z,7.18
2019-04-22T02:59:03.927Z,7.26
2019-04-22T03:01:30.093Z,7.17
2019-04-22T03:06:34.820Z,7.11
2019-04-22T03:09:03.896Z,7.11
2019-04-22T03:11:33.426Z,7.05
2019-04-22T03:14:13.298Z,7.02
2019-04-22T03:26:43.721Z,6.95
2019-04-22T03:29:13.325Z,6.90
2019-04-22T03:37:23.283Z,6.87
2019-04-22T03:42:07.465Z,6.90
2019-04-22T03:44:39.113Z,6.86
2019-04-22T03:49:47.482Z,6.87
2019-04-22T03:57:33.144Z,6.89
2019-04-22T03:59:41.537Z,6.91
2019-04-22T04:12:23.749Z,7.08
2019-04-22T04:14:57.963Z,7.10
2019-04-22T04:17:20.729Z,7.13
2019-04-22T04:27:43.692Z,9.68
2019-04-22T04:30:08.322Z,10.41
2019-04-22T04:35:12.655Z,11.79
2019-04-22T04:40:25.100Z,12.69
2019-04-22T04:52:52.501Z,14.08
2019-04-22T04:55:18.060Z,14.53
2019-04-22T05:02:44.729Z,14.84
2019-04-22T05:05:34.977Z,14.55
2019-04-22T05:07:48.544Z,13.92
2019-04-22T05:15:18.495Z,12.72
2019-04-22T05:17:55.475Z,12.34
2019-04-22T05:20:26.963Z,12.27
2019-04-22T05:23:01.812Z,12.10
2019-04-22T05:25:19.586Z,11.88
2019-04-22T05:27:52.150Z,11.82
2019-04-22T05:30:35.876Z,11.85
2019-04-22T05:32:47.382Z,11.70
2019-04-22T05:37:56.614Z,11.67
2019-04-22T05:40:24.555Z,11.69
2019-04-22T05:42:56.375Z,11.68
2019-04-22T05:45:28.266Z,11.62
2019-04-22T05:47:57.566Z,11.57
2019-04-22T05:50:22.806Z,11.48
2019-04-22T05:53:03.382Z,11.47
2019-04-22T05:55:36.324Z,11.53
2019-04-22T05:58:02.800Z,11.52
2019-04-22T06:01:05.621Z,11.42
2019-04-22T06:03:20.904Z,11.42
2019-04-22T06:05:45.263Z,11.33
2019-04-22T06:08:10.220Z,11.35
2019-04-22T06:10:48.572Z,11.28
2019-04-22T06:13:14.618Z,11.20
2019-04-22T06:15:49.287Z,11.11
2019-04-22T06:18:23.925Z,11.04
2019-04-22T06:23:26.105Z,10.98
2019-04-22T06:28:36.999Z,11.10
2019-04-22T06:31:02.562Z,11.17
2019-04-22T06:33:34.670Z,11.33
2019-04-22T06:36:05.119Z,11.38
2019-04-22T06:41:08.609Z,11.66
2019-04-22T06:43:38.523Z,11.63
2019-04-22T06:46:09.888Z,11.69
2019-04-22T06:48:36.254Z,11.78
2019-04-22T06:51:08.222Z,11.80
2019-04-22T06:53:41.889Z,11.91
2019-04-22T06:56:12.490Z,11.86
2019-04-22T06:58:39.902Z,11.91
2019-04-22T07:01:18.201Z,11.97
2019-04-22T07:03:48.276Z,11.93
2019-04-22T07:06:33.439Z,12.04
2019-04-22T07:11:16.816Z,12.30
2019-04-22T07:13:50.358Z,12.33
2019-04-22T07:16:30.249Z,12.39
2019-04-22T07:21:24.313Z,12.50
2019-04-22T07:24:02.934Z,12.61
2019-04-22T07:26:39.636Z,12.69
2019-04-22T07:28:56.450Z,12.71
2019-04-22T07:31:42.903Z,12.73
2019-04-22T07:33:58.469Z,12.78
2019-04-22T07:39:05.567Z,12.72
2019-04-22T07:41:32.885Z,12.77
2019-04-22T07:44:13.893Z,12.85
2019-04-22T07:51:41.090Z,13.26
2019-04-22T07:54:06.509Z,13.37
2019-04-22T07:56:42.771Z,13.12
2019-04-22T07:59:09.599Z,13.16
2019-04-22T08:01:41.908Z,13.22
2019-04-22T08:04:22.899Z,13.24
2019-04-22T08:09:20.287Z,13.42
2019-04-22T08:11:49.933Z,13.59
2019-04-22T08:14:22.490Z,13.77
2019-04-22T08:16:51.995Z,13.88
2019-04-22T08:19:23.133Z,14.02
2019-04-22T08:21:50.659Z,14.09
2019-04-22T08:24:22.738Z,14.05
2019-04-22T08:26:59.349Z,14.03
2019-04-22T08:34:25.910Z,14.26
2019-04-22T08:37:37.054Z,14.36
2019-04-22T08:39:33.161Z,14.35
2019-04-22T08:42:13.887Z,14.52
2019-04-22T08:45:08.128Z,14.65
2019-04-22T08:49:50.834Z,14.90
2019-04-22T08:52:16.296Z,14.93
2019-04-22T08:54:44.598Z,14.99
2019-04-22T08:57:18.307Z,15.05
2019-04-22T08:59:48.958Z,15.07
2019-04-22T09:02:23.012Z,15.03
2019-04-22T09:04:48.026Z,15.04
2019-04-22T09:07:28.399Z,15.15
2019-04-22T09:09:53.667Z,15.29
2019-04-22T09:12:23.970Z,15.46
2019-04-22T09:14:52.057Z,15.51
2019-04-22T09:17:39.827Z,15.68
2019-04-22T09:22:27.222Z,16.00
2019-04-22T09:24:57.322Z,15.93
2019-04-22T09:27:37.132Z,16.00
2019-04-22T09:30:01.149Z,15.94
2019-04-22T09:32:33.153Z,15.92
2019-04-22T09:35:02.615Z,16.11
2019-04-22T09:37:38.977Z,16.33
2019-04-22T09:40:11.913Z,16.40
2019-04-22T09:42:39.749Z,16.37
2019-04-22T09:50:08.240Z,16.39
2019-04-22T09:52:45.663Z,16.49
2019-04-22T09:55:18.322Z,16.65
2019-04-22T09:57:47.101Z,16.67
2019-04-22T10:00:16.953Z,16.82
2019-04-22T10:02:55.403Z,17.02
2019-04-22T10:05:21.107Z,17.11
2019-04-22T10:07:54.823Z,17.13
2019-04-22T10:12:54.304Z,17.35
2019-04-22T10:15:23.343Z,17.49
2019-04-22T10:17:58.219Z,17.57
2019-04-22T10:20:27.000Z,17.63
2019-04-22T10:23:03.787Z,17.54
2019-04-22T10:25:30.160Z,17.61
2019-04-22T10:28:01.600Z,17.69
2019-04-22T10:30:39.300Z,17.73
2019-04-22T10:33:00.787Z,17.89
2019-04-22T10:35:17.198Z,18.00
2019-04-22T10:37:42.715Z,17.99
2019-04-22T10:40:19.591Z,18.00
2019-04-22T10:42:51.432Z,18.02
2019-04-22T10:45:21.988Z,18.08
2019-04-22T10:47:52.246Z,18.08
2019-04-22T10:50:26.291Z,18.03
2019-04-22T10:52:55.786Z,18.15
2019-04-22T10:55:25.752Z,18.29
2019-04-22T10:57:55.269Z,18.42
2019-04-22T11:00:24.751Z,18.57
2019-04-22T11:02:54.209Z,18.58
2019-04-22T11:05:24.125Z,18.48
2019-04-22T11:07:59.040Z,18.50
2019-04-22T11:10:37.046Z,18.53
2019-04-22T11:12:56.821Z,18.63
2019-04-22T11:15:26.730Z,18.57
2019-04-22T11:17:57.652Z,18.52
2019-04-22T11:20:27.697Z,18.57
2019-04-22T11:22:58.262Z,18.62
2019-04-22T11:25:29.834Z,18.71
2019-04-22T11:28:00.012Z,18.86
2019-04-22T11:30:30.558Z,18.98
2019-04-22T11:33:00.467Z,19.10
2019-04-22T11:35:30.168Z,19.14
2019-04-22T11:38:01.127Z,19.19
2019-04-22T11:40:37.876Z,19.24
2019-04-22T11:43:03.904Z,19.30
2019-04-22T11:45:33.651Z,19.25
2019-04-22T11:48:03.582Z,19.35
2019-04-22T11:50:33.635Z,19.32
2019-04-22T11:53:03.113Z,19.35
2019-04-22T11:55:32.953Z,19.42
2019-04-22T11:58:03.058Z,19.44
2019-04-22T12:00:36.987Z,19.41
2019-04-22T12:03:07.317Z,19.48
2019-04-22T12:05:37.572Z,19.63
2019-04-22T12:08:09.145Z,19.81
2019-04-22T12:10:48.293Z,19.95
2019-04-22T12:13:10.351Z,19.94
2019-04-22T12:15:40.807Z,19.80
2019-04-22T12:18:11.232Z,19.86
2019-04-22T12:20:41.466Z,20.01
2019-04-22T12:23:11.192Z,20.17
2019-04-22T12:25:51.653Z,20.27
2019-04-22T12:28:15.080Z,20.47
2019-04-22T12:30:45.715Z,20.75
2019-04-22T12:33:16.948Z,21.01
2019-04-22T12:35:46.565Z,20.97
2019-04-22T12:38:17.029Z,20.97
2019-04-22T12:40:55.337Z,21.19
2019-04-22T12:43:22.150Z,21.47
2019-04-22T12:45:51.980Z,21.40
2019-04-22T12:48:23.130Z,21.47
2019-04-22T12:50:55.960Z,21.12
2019-04-22T12:53:26.338Z,20.92
2019-04-22T12:55:55.869Z,20.79
2019-04-22T12:58:27.678Z,20.58
2019-04-22T13:00:57.250Z,20.60
2019-04-22T13:03:26.679Z,20.75
2019-04-22T13:05:57.401Z,20.83
2019-04-22T13:08:27.611Z,20.86
2019-04-22T13:11:02.952Z,20.72
2019-04-22T13:13:29.038Z,20.72
2019-04-22T13:15:59.341Z,20.64
2019-04-22T13:18:37.282Z,20.84
2019-04-22T13:21:00.424Z,21.13
2019-04-22T13:23:29.975Z,21.23
2019-04-22T13:26:00.901Z,21.27
2019-04-22T13:28:31.469Z,21.44
2019-04-22T13:31:02.033Z,21.47
2019-04-22T13:33:32.903Z,21.12
2019-04-22T13:36:03.773Z,20.88
2019-04-22T13:38:33.349Z,20.92
2019-04-22T13:41:17.291Z,20.81
2019-04-22T13:43:34.764Z,20.67
2019-04-22T13:46:06.012Z,20.49
2019-04-22T13:48:58.948Z,20.41
2019-04-22T13:51:36.197Z,20.59
2019-04-22T13:56:35.709Z,20.32
2019-04-22T13:58:52.827Z,20.35
2019-04-22T14:01:14.846Z,20.23
2019-04-22T14:04:14.398Z,20.19
2019-04-22T14:06:44.850Z,20.35
2019-04-22T14:09:16.718Z,20.58
2019-04-22T14:11:52.900Z,20.67
2019-04-22T14:14:17.727Z,20.25
2019-04-22T14:16:47.297Z,20.22
2019-04-22T14:19:18.262Z,19.92
2019-04-22T14:21:49.517Z,19.99
2019-04-22T14:24:19.818Z,19.78
2019-04-22T14:26:59.961Z,19.79
2019-04-22T14:29:21.755Z,19.75
2019-04-22T14:32:04.257Z,19.80
2019-04-22T14:34:24.145Z,19.78
2019-04-22T14:36:55.182Z,19.70
2019-04-22T14:39:26.146Z,19.74
2019-04-22T14:42:19.574Z,19.45
2019-04-22T14:47:19.939Z,19.18
2019-04-22T14:49:55.996Z,18.79
2019-04-22T14:52:22.733Z,18.67
2019-04-22T14:54:45.946Z,18.56
2019-04-22T14:57:05.179Z,18.52
2019-04-22T14:59:35.788Z,18.44
2019-04-22T15:02:07.676Z,18.51
2019-04-22T15:04:37.434Z,18.42
2019-04-22T15:07:08.583Z,18.24
2019-04-22T15:09:39.524Z,18.14
2019-04-22T15:12:18.419Z,18.17
2019-04-22T15:14:41.679Z,18.04
2019-04-22T15:17:42.892Z,17.99
2019-04-22T15:20:37.683Z,18.01
2019-04-22T15:23:08.489Z,18.16
2019-04-22T15:25:38.625Z,18.22
2019-04-22T15:28:09.237Z,18.21
2019-04-22T15:30:39.412Z,18.14
2019-04-22T15:33:09.702Z,18.00
2019-04-22T15:35:39.318Z,17.86
2019-04-22T15:38:09.051Z,17.86
2019-04-22T15:40:38.694Z,17.93
2019-04-22T15:43:08.774Z,17.87
2019-04-22T15:45:39.071Z,17.90
2019-04-22T15:48:10.295Z,17.64
2019-04-22T15:50:40.540Z,17.54
2019-04-22T15:53:11.540Z,17.47
2019-04-22T15:55:42.770Z,17.34
2019-04-22T15:58:12.350Z,17.26
2019-04-22T16:00:55.633Z,17.15
2019-04-22T16:03:14.304Z,17.18
2019-04-22T16:05:44.230Z,17.15
2019-04-22T16:08:14.989Z,17.07
2019-04-22T16:10:46.008Z,17.01
2019-04-22T16:13:22.335Z,17.14
2019-04-22T16:15:46.967Z,17.15
2019-04-22T16:18:18.034Z,17.09
2019-04-22T16:20:48.187Z,17.02
2019-04-22T16:23:36.267Z,16.81
2019-04-22T16:26:26.439Z,16.70
2019-04-22T16:28:58.072Z,16.62
2019-04-22T16:31:27.276Z,16.62
2019-04-22T16:33:58.316Z,16.54
2019-04-22T16:36:29.062Z,16.51
2019-04-22T16:38:58.740Z,16.47
2019-04-22T16:41:28.681Z,16.42
2019-04-22T16:43:58.784Z,16.45
2019-04-22T16:46:29.640Z,16.41
2019-04-22T16:48:59.349Z,16.31
2019-04-22T16:51:29.787Z,16.16
2019-04-22T16:54:00.015Z,16.18
2019-04-22T16:56:33.230Z,16.07
2019-04-22T16:59:01.013Z,16.02
2019-04-22T17:02:01.355Z,15.93
2019-04-22T17:04:48.936Z,15.83
2019-04-22T17:07:20.596Z,15.78
2019-04-22T17:09:50.125Z,15.72
2019-04-22T17:12:19.789Z,15.67
2019-04-22T17:14:54.769Z,15.60
2019-04-22T17:17:20.465Z,15.56
2019-04-22T17:19:51.376Z,15.52
2019-04-22T17:22:21.768Z,15.44
2019-04-22T17:24:51.845Z,15.42
2019-04-22T17:27:22.359Z,15.41
2019-04-22T17:29:52.485Z,15.31
2019-04-22T17:32:23.479Z,15.24
2019-04-22T17:34:53.860Z,15.20
2019-04-22T17:37:26.589Z,15.14
2019-04-22T17:40:10.128Z,15.09
2019-04-22T17:42:47.815Z,15.03
2019-04-22T17:45:29.451Z,14.98
2019-04-22T17:48:20.267Z,14.92
2019-04-22T17:50:52.037Z,14.88
2019-04-22T17:53:26.087Z,14.83
2019-04-22T17:55:56.813Z,14.87
2019-04-22T17:58:29.036Z,14.80
2019-04-22T18:00:56.717Z,14.75
2019-04-22T18:03:20.217Z,14.69
2019-04-22T18:05:45.885Z,14.63
2019-04-22T18:08:33.243Z,14.60
2019-04-22T18:10:59.857Z,14.56
2019-04-22T18:13:41.300Z,14.55
2019-04-22T18:16:05.454Z,14.53
2019-04-22T18:18:36.981Z,14.48
2019-04-22T18:21:00.714Z,14.48
2019-04-22T18:23:22.698Z,14.45
2019-04-22T18:26:05.119Z,14.42
2019-04-22T18:28:47.942Z,14.38
2019-04-22T18:31:06.300Z,14.33
2019-04-22T18:33:38.633Z,14.30
2019-04-22T18:36:11.261Z,14.28
2019-04-22T18:41:15.195Z,14.20
2019-04-22T18:43:48.314Z,14.21
2019-04-22T18:46:15.730Z,14.18
2019-04-22T18:48:46.442Z,14.17
2019-04-22T18:51:31.948Z,14.13
2019-04-22T18:54:21.189Z,14.10
2019-04-22T18:56:52.459Z,14.02
2019-04-22T18:59:12.416Z,13.99
2019-04-22T19:01:33.625Z,13.97
2019-04-22T19:04:11.371Z,13.98
2019-04-22T19:06:56.465Z,13.99
2019-04-22T19:09:36.174Z,13.94
2019-04-22T19:12:18.038Z,13.91
2019-04-22T19:14:43.618Z,13.90
2019-04-22T19:17:10.871Z,13.80
2019-04-22T19:19:56.174Z,13.78
2019-04-22T19:22:03.477Z,13.77
2019-04-22T19:24:34.494Z,13.75
2019-04-22T19:27:09.540Z,13.78
2019-04-22T19:29:45.103Z,13.71
2019-04-22T19:32:18.462Z,13.63
2019-04-22T19:34:44.320Z,13.61
2019-04-22T19:37:13.285Z,13.60
2019-04-22T19:39:52.649Z,13.59
2019-04-22T19:42:24.488Z,13.58
2019-04-22T19:44:53.452Z,13.52
2019-04-22T19:47:38.212Z,13.54
2019-04-22T19:49:57.914Z,13.51
2019-04-22T19:54:57.268Z,13.37
2019-04-22T19:57:22.537Z,13.26
2019-04-22T19:59:55.851Z,13.24
2019-04-22T20:02:45.195Z,13.25
2019-04-22T20:05:30.083Z,13.21
2019-04-22T20:07:58.894Z,13.15
2019-04-22T20:10:30.040Z,13.11
2019-04-22T20:13:05.055Z,13.09
2019-04-22T20:15:29.267Z,12.97
2019-04-22T20:18:21.730Z,12.92
2019-04-22T20:20:42.235Z,12.91
2019-04-22T20:23:05.169Z,12.79
2019-04-22T20:25:35.927Z,12.76
2019-04-22T20:28:15.077Z,12.72
2019-04-22T20:30:39.969Z,12.69
2019-04-22T20:33:13.877Z,12.67
2019-04-22T20:35:46.585Z,12.66
2019-04-22T20:38:13.541Z,12.63
2019-04-22T20:40:42.538Z,12.64
2019-04-22T20:43:26.173Z,12.59
2019-04-22T20:45:51.188Z,12.51
2019-04-22T20:48:07.875Z,12.50
2019-04-22T20:50:54.847Z,12.50
2019-04-22T20:53:28.109Z,12.49
2019-04-22T20:55:52.494Z,12.42
2019-04-22T20:58:28.618Z,12.41
2019-04-22T21:00:50.219Z,12.43
2019-04-22T21:03:20.875Z,12.38
2019-04-22T21:05:52.624Z,12.31
2019-04-22T21:08:36.633Z,12.23
2019-04-22T21:10:57.926Z,12.23
2019-04-22T21:13:27.850Z,12.23
2019-04-22T21:16:10.594Z,12.09
2019-04-22T21:18:30.540Z,12.07
2019-04-22T21:21:11.407Z,11.95
2019-04-22T21:23:36.613Z,11.93
2019-04-22T21:26:11.096Z,11.86
2019-04-22T21:28:42.967Z,11.81
2019-04-22T21:31:18.933Z,11.79
2019-04-22T21:33:47.239Z,11.77
2019-04-22T21:36:20.659Z,11.73
2019-04-22T21:38:48.375Z,11.67
2019-04-22T21:41:16.099Z,11.62
2019-04-22T21:43:54.767Z,11.63
2019-04-22T21:46:23.190Z,11.57
2019-04-22T21:48:53.088Z,11.48
2019-04-22T21:51:29.077Z,11.50
2019-04-22T21:59:01.859Z,11.41
2019-04-22T22:01:52.878Z,11.39
2019-04-22T22:04:16.987Z,11.38
2019-04-22T22:06:39.624Z,11.37
2019-04-22T22:09:20.484Z,11.37
2019-04-22T22:11:46.248Z,11.30
2019-04-22T22:14:20.839Z,11.30
2019-04-22T22:16:45.977Z,11.24
2019-04-22T22:19:24.008Z,11.20
2019-04-22T22:22:02.407Z,11.21
2019-04-22T22:24:28.920Z,11.18
2019-04-22T22:26:57.117Z,11.20
2019-04-22T22:29:36.949Z,11.15
2019-04-22T22:32:02.712Z,11.17
2019-04-22T22:34:26.725Z,11.17
2019-04-22T22:36:52.860Z,11.14
2019-04-22T22:39:24.902Z,11.10
2019-04-22T22:41:44.028Z,11.15
2019-04-22T22:44:23.499Z,11.11
2019-04-22T22:47:05.008Z,11.01
2019-04-22T22:49:42.855Z,11.00
2019-04-22T22:52:32.515Z,10.99
2019-04-22T22:54:43.978Z,10.91
2019-04-22T22:57:19.502Z,10.85
2019-04-22T22:59:42.999Z,10.74
2019-04-22T23:02:11.567Z,10.76
2019-04-22T23:04:46.002Z,10.69
2019-04-22T23:07:22.572Z,10.72
2019-04-22T23:09:47.343Z,10.69
2019-04-22T23:12:31.467Z,10.66
2019-04-22T23:14:51.462Z,10.60
2019-04-22T23:17:07.093Z,10.55
2019-04-22T23:19:33.697Z,10.49
2019-04-22T23:22:14.503Z,10.43
2019-04-22T23:24:50.575Z,10.43
2019-04-22T23:27:26.213Z,10.44
2019-04-22T23:30:15.655Z,10.37
2019-04-22T23:32:43.565Z,10.36
2019-04-22T23:35:46.654Z,10.39
2019-04-22T23:38:16.488Z,10.44
2019-04-22T23:40:51.815Z,10.35
2019-04-22T23:43:27.545Z,10.43
2019-04-22T23:45:56.423Z,10.35
2019-04-22T23:48:27.106Z,10.37
2019-04-22T23:51:07.256Z,10.39
2019-04-22T23:54:04.309Z,10.38
2019-04-22T23:56:09.233Z,10.41
